createdAt,value
2022-07-30T00:01:48.807Z,193.32
2022-07-30T00:04:16.284Z,222.95
2022-07-30T00:06:44.270Z,182.97
2022-07-30T00:09:12.326Z,204.52
2022-07-30T00:11:39.953Z,191.30
2022-07-30T00:14:07.609Z,191.48
2022-07-30T00:16:35.335Z,175.00
2022-07-30T00:19:03.447Z,202.70
2022-07-30T00:21:38.565Z,202.13
2022-07-30T00:24:08.858Z,231.60
2022-07-30T00:26:36.561Z,211.43
2022-07-30T00:29:05.419Z,159.60
2022-07-30T00:31:33.358Z,190.57
2022-07-30T00:34:01.075Z,179.60
2022-07-30T00:36:28.694Z,161.32
2022-07-30T00:38:57.458Z,200.47
2022-07-30T00:41:26.139Z,199.02
2022-07-30T00:43:53.753Z,225.10
2022-07-30T00:46:21.568Z,222.98
2022-07-30T00:48:49.481Z,270.77
2022-07-30T00:51:17.094Z,249.15
2022-07-30T00:53:44.697Z,193.73
2022-07-30T00:56:12.198Z,241.57
2022-07-30T00:58:39.935Z,255.88
2022-07-30T01:01:07.399Z,267.95
2022-07-30T01:03:35.025Z,198.23
2022-07-30T01:06:02.566Z,204.35
2022-07-30T01:08:30.214Z,208.60
2022-07-30T01:10:57.917Z,264.13
2022-07-30T01:13:25.551Z,182.15
2022-07-30T01:15:53.857Z,182.07
2022-07-30T01:18:25.155Z,206.65
2022-07-30T01:21:10.149Z,216.63
2022-07-30T01:23:43.415Z,268.13
2022-07-30T01:26:15.715Z,221.90
2022-07-30T01:28:53.871Z,243.87
2022-07-30T01:31:25.717Z,202.63
2022-07-30T01:33:55.314Z,208.25
2022-07-30T01:36:23.701Z,192.65
2022-07-30T01:38:53.001Z,181.07
2022-07-30T01:41:21.242Z,212.13
2022-07-30T01:43:48.967Z,277.77
2022-07-30T01:46:18.030Z,225.35
2022-07-30T01:48:48.720Z,218.90
2022-07-30T01:51:18.489Z,264.27
2022-07-30T01:53:51.408Z,208.90
2022-07-30T01:56:24.951Z,259.13
2022-07-30T01:58:56.046Z,257.92
2022-07-30T02:01:31.509Z,240.05
2022-07-30T02:04:02.705Z,210.27
2022-07-30T02:06:41.808Z,185.07
2022-07-30T02:09:16.335Z,259.77
2022-07-30T02:12:06.174Z,254.73
2022-07-30T02:14:48.198Z,196.37
2022-07-30T02:17:30.259Z,207.88
2022-07-30T02:20:00.595Z,267.85
2022-07-30T02:22:37.516Z,261.08
2022-07-30T02:25:07.754Z,171.38
2022-07-30T02:27:40.788Z,203.40
2022-07-30T02:30:10.003Z,235.07
2022-07-30T02:32:41.401Z,199.60
2022-07-30T02:35:17.496Z,189.90
2022-07-30T02:37:48.478Z,189.43
2022-07-30T02:40:18.963Z,154.15
2022-07-30T02:42:50.690Z,236.75
2022-07-30T02:45:24.155Z,227.20
2022-07-30T02:48:07.926Z,262.88
2022-07-30T02:50:40.331Z,255.95
2022-07-30T02:53:11.312Z,267.17
2022-07-30T02:55:42.945Z,251.48
2022-07-30T02:58:16.065Z,171.20
2022-07-30T03:00:44.541Z,183.35
2022-07-30T03:03:14.571Z,169.70
2022-07-30T03:05:43.242Z,272.38
2022-07-30T03:08:11.149Z,218.15
2022-07-30T03:10:40.081Z,212.60
2022-07-30T03:13:09.292Z,237.25
2022-07-30T03:15:42.273Z,170.90
2022-07-30T03:18:13.425Z,232.90
2022-07-30T03:20:45.540Z,201.70
2022-07-30T03:23:19.990Z,247.55
2022-07-30T03:26:01.406Z,231.80
2022-07-30T03:28:32.887Z,268.48
2022-07-30T03:31:01.964Z,237.40
2022-07-30T03:33:38.554Z,222.48
2022-07-30T03:36:09.376Z,225.68
2022-07-30T03:38:42.821Z,238.65
2022-07-30T03:41:12.151Z,245.23
2022-07-30T03:43:42.152Z,235.32
2022-07-30T03:46:11.318Z,240.03
2022-07-30T03:48:43.106Z,225.98
2022-07-30T03:51:11.416Z,245.47
2022-07-30T03:53:42.402Z,230.95
2022-07-30T03:56:28.440Z,245.38
2022-07-30T03:59:22.279Z,256.60
2022-07-30T04:01:50.021Z,230.33
2022-07-30T04:04:31.574Z,235.07
2022-07-30T04:06:59.520Z,250.65
2022-07-30T04:09:27.387Z,247.45
2022-07-30T04:11:55.249Z,233.45
2022-07-30T04:14:27.756Z,234.70
2022-07-30T04:17:04.851Z,246.23
2022-07-30T04:19:38.806Z,233.63
2022-07-30T04:22:08.267Z,259.98
2022-07-30T04:24:39.298Z,246.70
2022-07-30T04:27:07.325Z,211.50
2022-07-30T04:29:35.864Z,230.67
2022-07-30T04:32:03.805Z,239.90
2022-07-30T04:34:34.347Z,254.33
2022-07-30T04:37:03.613Z,224.00
2022-07-30T04:39:31.620Z,233.43
2022-07-30T04:41:59.393Z,266.75
2022-07-30T04:44:32.794Z,200.18
2022-07-30T04:47:25.786Z,239.05
2022-07-30T04:50:13.832Z,271.50
2022-07-30T04:52:43.511Z,291.10
2022-07-30T04:55:13.660Z,255.65
2022-07-30T04:57:43.444Z,239.20
2022-07-30T05:00:11.978Z,243.40
2022-07-30T05:02:42.575Z,271.73
2022-07-30T05:05:12.427Z,277.35
2022-07-30T05:07:40.423Z,284.50
2022-07-30T05:10:11.266Z,246.43
2022-07-30T05:12:39.865Z,281.00
2022-07-30T05:15:09.003Z,258.75
2022-07-30T05:17:38.213Z,241.25
2022-07-30T05:20:09.979Z,246.05
2022-07-30T05:23:00.093Z,312.35
2022-07-30T05:25:27.915Z,237.52
2022-07-30T05:28:02.949Z,248.38
2022-07-30T05:30:30.751Z,238.93
2022-07-30T05:33:01.423Z,213.13
2022-07-30T05:35:31.868Z,206.45
2022-07-30T05:38:00.840Z,236.07
2022-07-30T05:40:32.879Z,262.85
2022-07-30T05:43:19.090Z,201.23
2022-07-30T05:45:46.848Z,251.30
2022-07-30T05:48:14.345Z,205.93
2022-07-30T05:50:42.285Z,244.00
2022-07-30T05:53:09.926Z,300.90
2022-07-30T05:56:03.253Z,254.55
2022-07-30T05:58:49.336Z,238.68
2022-07-30T06:01:25.722Z,248.75
2022-07-30T06:03:54.609Z,212.75
2022-07-30T06:06:40.711Z,256.70
2022-07-30T06:09:08.591Z,246.68
2022-07-30T06:11:36.177Z,308.33
2022-07-30T06:14:03.956Z,282.98
2022-07-30T06:16:31.574Z,243.80
2022-07-30T06:18:59.153Z,260.85
2022-07-30T06:22:02.133Z,291.40
2022-07-30T06:24:30.853Z,240.55
2022-07-30T06:27:05.570Z,246.30
2022-07-30T06:29:33.685Z,248.23
2022-07-30T06:32:01.758Z,229.20
2022-07-30T06:34:30.270Z,229.88
2022-07-30T06:36:58.189Z,257.17
2022-07-30T06:39:55.975Z,168.60
2022-07-30T06:42:19.845Z,173.40
2022-07-30T06:45:21.333Z,195.25
2022-07-30T06:48:07.417Z,244.50
2022-07-30T06:50:37.533Z,158.70
2022-07-30T06:53:05.218Z,201.10
2022-07-30T06:55:53.013Z,193.02
2022-07-30T06:58:29.873Z,263.50
2022-07-30T07:01:29.878Z,293.98
2022-07-30T07:03:58.453Z,244.97
2022-07-30T07:06:26.016Z,184.77
2022-07-30T07:08:53.582Z,196.73
2022-07-30T07:11:29.064Z,249.77
2022-07-30T07:14:02.652Z,209.98
2022-07-30T07:16:35.404Z,197.63
2022-07-30T07:20:00.287Z,281.13
2022-07-30T07:22:17.191Z,210.43
2022-07-30T07:24:45.520Z,221.52
2022-07-30T07:27:18.031Z,211.47
2022-07-30T07:30:01.814Z,213.60
2022-07-30T07:32:37.323Z,230.77
2022-07-30T07:35:06.112Z,193.18
2022-07-30T07:37:36.149Z,199.05
2022-07-30T07:40:06.155Z,196.95
2022-07-30T07:42:38.201Z,225.60
2022-07-30T07:45:07.910Z,207.90
2022-07-30T07:47:51.831Z,220.02
2022-07-30T07:50:55.979Z,207.90
2022-07-30T07:53:29.042Z,183.02
2022-07-30T07:55:57.281Z,198.38
2022-07-30T07:58:26.853Z,204.13
2022-07-30T08:00:58.870Z,230.73
2022-07-30T08:03:46.373Z,184.47
2022-07-30T08:06:37.165Z,201.82
2022-07-30T08:09:40.868Z,166.13
2022-07-30T08:12:38.351Z,188.65
2022-07-30T08:15:44.130Z,199.32
2022-07-30T08:18:39.600Z,165.48
2022-07-30T08:21:20.358Z,202.55
2022-07-30T08:23:48.030Z,198.47
2022-07-30T08:26:16.021Z,206.88
2022-07-30T08:28:43.609Z,248.13
2022-07-30T08:31:12.377Z,190.35
2022-07-30T08:33:39.915Z,206.15
2022-07-30T08:36:09.726Z,247.32
2022-07-30T08:38:39.416Z,244.27
2022-07-30T08:41:08.689Z,180.50
2022-07-30T08:43:38.861Z,144.07
2022-07-30T08:46:11.425Z,183.60
2022-07-30T08:48:55.144Z,179.98
2022-07-30T08:51:24.136Z,199.43
2022-07-30T08:54:16.974Z,198.63
2022-07-30T08:56:45.538Z,379.92
2022-07-30T08:59:14.714Z,497.38
2022-07-30T09:01:43.907Z,373.55
2022-07-30T09:04:11.979Z,432.00
2022-07-30T09:06:41.200Z,524.78
2022-07-30T09:09:12.917Z,327.30
2022-07-30T09:11:42.001Z,422.48
2022-07-30T09:14:16.070Z,502.20
2022-07-30T09:16:45.472Z,248.45
2022-07-30T09:19:18.997Z,206.93
2022-07-30T09:22:01.955Z,240.23
2022-07-30T09:24:46.966Z,338.25
2022-07-30T09:27:49.328Z,238.88
2022-07-30T09:30:49.879Z,291.37
2022-07-30T09:33:44.781Z,289.50
2022-07-30T09:36:33.793Z,265.50
2022-07-30T09:39:36.105Z,227.70
2022-07-30T09:42:27.954Z,205.25
2022-07-30T09:45:13.205Z,226.50
2022-07-30T09:47:48.601Z,214.60
2022-07-30T09:50:30.117Z,215.07
2022-07-30T09:53:12.224Z,248.57
2022-07-30T09:55:43.377Z,266.33
2022-07-30T09:58:19.973Z,222.00
2022-07-30T10:01:00.359Z,174.85
2022-07-30T10:03:51.251Z,242.40
2022-07-30T10:06:37.787Z,261.55
2022-07-30T10:09:29.198Z,248.00
2022-07-30T10:11:59.848Z,185.30
2022-07-30T10:14:35.208Z,237.82
2022-07-30T10:17:11.181Z,221.38
2022-07-30T10:19:42.340Z,224.50
2022-07-30T10:22:48.084Z,235.52
2022-07-30T10:25:28.070Z,272.43
2022-07-30T10:28:35.800Z,181.10
2022-07-30T10:31:08.386Z,262.60
2022-07-30T10:33:55.970Z,227.55
2022-07-30T10:36:25.934Z,225.05
2022-07-30T10:38:55.505Z,210.32
2022-07-30T10:41:54.120Z,202.45
2022-07-30T10:44:28.129Z,216.15
2022-07-30T10:47:07.240Z,206.97
2022-07-30T10:49:41.615Z,203.57
2022-07-30T10:52:12.306Z,192.77
2022-07-30T10:54:43.380Z,217.32
2022-07-30T10:57:22.840Z,207.27
2022-07-30T11:00:03.846Z,248.85
2022-07-30T11:02:35.311Z,196.82
2022-07-30T11:05:38.199Z,134.85
2022-07-30T11:08:45.283Z,203.90
2022-07-30T11:12:01.905Z,198.20
2022-07-30T11:14:10.149Z,147.40
2022-07-30T11:16:42.334Z,244.73
2022-07-30T11:19:55.275Z,292.90
2022-07-30T11:22:29.924Z,186.95
2022-07-30T11:24:58.213Z,243.77
2022-07-30T11:27:48.441Z,172.07
2022-07-30T11:30:17.557Z,137.27
2022-07-30T11:33:04.683Z,176.30
2022-07-30T11:35:35.596Z,154.98
2022-07-30T11:38:08.405Z,236.63
2022-07-30T11:40:37.639Z,182.02
2022-07-30T11:43:20.324Z,164.03
2022-07-30T11:46:06.283Z,262.42
2022-07-30T11:48:35.438Z,196.40
2022-07-30T11:51:04.097Z,169.65
2022-07-30T11:53:32.149Z,148.48
2022-07-30T11:56:03.760Z,124.22
2022-07-30T11:58:37.413Z,119.97
2022-07-30T12:01:15.060Z,162.63
2022-07-30T12:03:45.651Z,167.90
2022-07-30T12:06:18.410Z,125.72
2022-07-30T12:08:48.681Z,168.73
2022-07-30T12:11:18.440Z,144.60
2022-07-30T12:14:00.423Z,203.65
2022-07-30T12:16:29.124Z,100.15
2022-07-30T12:19:01.455Z,224.80
2022-07-30T12:21:29.207Z,218.45
2022-07-30T12:24:03.578Z,141.73
2022-07-30T12:26:34.636Z,114.47
2022-07-30T12:29:16.170Z,120.07
2022-07-30T12:31:45.439Z,135.87
2022-07-30T12:34:23.891Z,107.65
2022-07-30T12:36:52.308Z,131.20
2022-07-30T12:39:25.127Z,122.97
2022-07-30T12:41:56.268Z,98.53
2022-07-30T12:44:39.598Z,146.48
2022-07-30T12:47:20.476Z,193.13
2022-07-30T12:49:50.230Z,144.25
2022-07-30T12:52:34.621Z,92.95
2022-07-30T12:55:12.606Z,171.25
2022-07-30T12:57:57.880Z,102.50
2022-07-30T13:00:32.173Z,130.82
2022-07-30T13:02:59.996Z,153.73
2022-07-30T13:05:44.990Z,184.23
2022-07-30T13:08:12.529Z,148.07
2022-07-30T13:10:53.934Z,193.20
2022-07-30T13:13:21.533Z,153.63
2022-07-30T13:15:59.189Z,256.60
2022-07-30T13:18:27.001Z,191.88
2022-07-30T13:20:54.569Z,193.95
2022-07-30T13:23:22.865Z,181.93
2022-07-30T13:25:51.060Z,255.13
2022-07-30T13:28:18.884Z,294.30
2022-07-30T13:30:46.772Z,216.50
2022-07-30T13:33:15.220Z,181.37
2022-07-30T13:35:42.734Z,185.73
2022-07-30T13:38:11.876Z,177.05
2022-07-30T13:40:40.702Z,147.18
2022-07-30T13:43:08.718Z,144.95
2022-07-30T13:45:37.250Z,218.90
2022-07-30T13:48:05.031Z,167.07
2022-07-30T13:50:32.512Z,155.32
2022-07-30T13:53:02.356Z,220.05
2022-07-30T13:55:30.860Z,116.97
2022-07-30T13:57:59.114Z,222.45
2022-07-30T14:00:32.987Z,117.93
2022-07-30T14:03:05.441Z,188.27
2022-07-30T14:05:33.717Z,190.63
2022-07-30T14:08:01.993Z,195.50
2022-07-30T14:10:30.100Z,169.38
2022-07-30T14:12:58.022Z,195.27
2022-07-30T14:15:27.273Z,178.47
2022-07-30T14:17:56.088Z,131.18
2022-07-30T14:20:25.021Z,161.63
2022-07-30T14:22:57.447Z,217.77
2022-07-30T14:25:25.179Z,189.00
2022-07-30T14:27:52.824Z,137.23
2022-07-30T14:30:20.529Z,125.75
2022-07-30T14:32:48.569Z,123.55
2022-07-30T14:35:16.391Z,139.02
2022-07-30T14:37:44.120Z,158.13
2022-07-30T14:40:12.510Z,158.00
2022-07-30T14:42:40.756Z,324.50
2022-07-30T14:45:10.032Z,362.77
2022-07-30T14:47:37.865Z,354.50
2022-07-30T14:50:05.879Z,434.70
2022-07-30T14:52:38.951Z,397.50
2022-07-30T14:55:08.512Z,418.73
2022-07-30T14:57:37.137Z,500.15
2022-07-30T15:00:11.578Z,458.25
2022-07-30T15:02:41.075Z,449.05
2022-07-30T15:05:09.665Z,494.70
2022-07-30T15:07:37.798Z,308.73
2022-07-30T15:10:07.602Z,384.92
2022-07-30T15:12:35.279Z,297.67
2022-07-30T15:15:06.626Z,235.77
2022-07-30T15:17:37.835Z,291.80
2022-07-30T15:20:08.030Z,277.02
2022-07-30T15:22:36.335Z,305.35
2022-07-30T15:25:04.318Z,328.75
2022-07-30T15:27:33.873Z,352.85
2022-07-30T15:30:03.134Z,337.92
2022-07-30T15:32:30.887Z,388.23
2022-07-30T15:34:59.032Z,376.70
2022-07-30T15:37:26.699Z,392.10
2022-07-30T15:39:54.311Z,283.40
2022-07-30T15:42:23.098Z,436.73
2022-07-30T15:45:15.558Z,409.48
2022-07-30T15:47:38.958Z,451.03
2022-07-30T15:50:07.980Z,461.75
2022-07-30T15:52:37.008Z,346.53
2022-07-30T15:55:06.076Z,550.22
2022-07-30T15:57:33.711Z,547.17
2022-07-30T16:00:01.256Z,478.65
2022-07-30T16:02:39.975Z,556.92
2022-07-30T16:05:13.728Z,513.30
2022-07-30T16:07:43.112Z,547.65
2022-07-30T16:10:11.137Z,534.22
2022-07-30T16:12:39.840Z,593.15
2022-07-30T16:15:08.163Z,417.13
2022-07-30T16:17:37.211Z,424.58
2022-07-30T16:20:06.337Z,541.58
2022-07-30T16:22:34.166Z,425.38
2022-07-30T16:25:01.829Z,513.42
2022-07-30T16:27:29.508Z,521.53
2022-07-30T16:29:57.043Z,582.42
2022-07-30T16:32:24.803Z,489.27
2022-07-30T16:34:52.346Z,471.83
2022-07-30T16:37:20.809Z,601.10
2022-07-30T16:39:48.304Z,460.88
2022-07-30T16:42:18.834Z,582.78
2022-07-30T16:44:46.870Z,534.20
2022-07-30T16:47:14.454Z,506.90
2022-07-30T16:49:42.340Z,473.95
2022-07-30T16:52:10.038Z,504.55
2022-07-30T16:54:37.715Z,559.88
2022-07-30T16:57:10.521Z,471.97
2022-07-30T16:59:43.656Z,611.67
2022-07-30T17:02:11.669Z,571.05
2022-07-30T17:04:39.335Z,517.78
2022-07-30T17:07:06.940Z,412.70
2022-07-30T17:09:36.798Z,547.15
2022-07-30T17:12:11.964Z,518.45
2022-07-30T17:14:43.201Z,565.75
2022-07-30T17:17:14.448Z,539.97
2022-07-30T17:19:43.418Z,484.53
2022-07-30T17:22:11.058Z,522.15
2022-07-30T17:24:38.778Z,553.30
2022-07-30T17:27:06.248Z,444.65
2022-07-30T17:29:33.967Z,442.80
2022-07-30T17:32:02.723Z,548.90
2022-07-30T17:34:30.601Z,534.28
2022-07-30T17:36:59.013Z,548.95
2022-07-30T17:40:26.552Z,467.02
2022-07-30T17:42:14.954Z,496.87
2022-07-30T17:44:43.275Z,560.08
2022-07-30T17:47:15.084Z,479.53
2022-07-30T17:49:44.385Z,551.92
2022-07-30T17:52:11.945Z,508.08
2022-07-30T17:54:39.545Z,499.17
2022-07-30T17:57:07.487Z,547.17
2022-07-30T17:59:35.433Z,540.33
2022-07-30T18:02:04.769Z,516.28
2022-07-30T18:04:33.639Z,555.28
2022-07-30T18:07:01.482Z,511.30
2022-07-30T18:09:30.371Z,481.70
2022-07-30T18:12:06.135Z,536.15
2022-07-30T18:14:34.000Z,515.03
2022-07-30T18:17:03.845Z,507.38
2022-07-30T18:19:31.460Z,518.42
2022-07-30T18:22:02.267Z,571.50
2022-07-30T18:24:30.776Z,595.83
2022-07-30T18:26:58.277Z,466.65
2022-07-30T18:29:25.892Z,491.38
2022-07-30T18:31:53.467Z,518.22
2022-07-30T18:34:21.041Z,528.87
2022-07-30T18:36:51.422Z,516.58
2022-07-30T18:39:19.158Z,546.60
2022-07-30T18:41:46.894Z,531.08
2022-07-30T18:44:14.682Z,503.75
2022-07-30T18:46:42.156Z,480.90
2022-07-30T18:49:33.922Z,491.50
2022-07-30T18:51:59.629Z,524.40
2022-07-30T18:54:27.760Z,475.67
2022-07-30T18:56:55.508Z,468.38
2022-07-30T18:59:23.074Z,489.00
2022-07-30T19:01:50.926Z,455.98
2022-07-30T19:04:18.426Z,460.88
2022-07-30T19:06:46.461Z,444.15
2022-07-30T19:09:17.717Z,455.77
2022-07-30T19:11:47.001Z,510.88
2022-07-30T19:14:15.161Z,479.38
2022-07-30T19:16:44.505Z,479.10
2022-07-30T19:19:13.977Z,489.17
2022-07-30T19:21:42.109Z,495.75
2022-07-30T19:24:10.096Z,490.65
2022-07-30T19:26:40.003Z,549.75
2022-07-30T19:29:10.784Z,462.73
2022-07-30T19:31:41.784Z,482.13
2022-07-30T19:34:11.668Z,488.33
2022-07-30T19:36:40.676Z,473.45
2022-07-30T19:39:10.187Z,457.30
2022-07-30T19:41:41.951Z,513.22
2022-07-30T19:44:12.734Z,500.00
2022-07-30T19:46:41.387Z,471.90
2022-07-30T19:49:10.788Z,504.48
2022-07-30T19:52:07.288Z,486.30
2022-07-30T19:54:28.342Z,456.20
2022-07-30T19:56:55.780Z,471.87
2022-07-30T19:59:43.703Z,480.85
2022-07-30T20:02:13.542Z,457.63
2022-07-30T20:04:43.816Z,499.88
2022-07-30T20:07:11.486Z,500.15
2022-07-30T20:09:43.020Z,475.83
2022-07-30T20:12:13.418Z,502.17
2022-07-30T20:14:43.417Z,471.45
2022-07-30T20:17:11.282Z,471.35
2022-07-30T20:19:38.950Z,474.63
2022-07-30T20:22:16.087Z,467.37
2022-07-30T20:24:45.391Z,458.02
2022-07-30T20:27:36.030Z,445.67
2022-07-30T20:30:02.225Z,455.80
2022-07-30T20:32:29.706Z,445.20
2022-07-30T20:34:57.509Z,446.63
2022-07-30T20:37:27.351Z,434.63
2022-07-30T20:39:56.084Z,440.55
2022-07-30T20:42:24.715Z,442.42
2022-07-30T20:44:57.167Z,433.03
2022-07-30T20:47:34.849Z,448.10
2022-07-30T20:50:09.389Z,458.42
2022-07-30T20:52:46.474Z,449.27
2022-07-30T20:55:19.325Z,454.52
2022-07-30T20:57:59.304Z,410.83
2022-07-30T21:00:37.685Z,409.70
2022-07-30T21:03:06.096Z,409.00
2022-07-30T21:05:43.830Z,413.47
2022-07-30T21:08:12.747Z,409.58
2022-07-30T21:10:44.679Z,442.10
2022-07-30T21:13:14.167Z,430.60
2022-07-30T21:15:45.338Z,434.58
2022-07-30T21:18:28.978Z,463.38
2022-07-30T21:20:56.912Z,457.38
2022-07-30T21:23:27.381Z,482.00
2022-07-30T21:26:00.715Z,415.27
2022-07-30T21:31:20.472Z,472.60
2022-07-30T21:34:08.240Z,420.63
2022-07-30T21:36:36.272Z,414.55
2022-07-30T21:39:06.293Z,410.77
2022-07-30T21:41:40.178Z,442.13
2022-07-30T21:44:09.839Z,463.02
2022-07-30T21:46:38.203Z,407.75
2022-07-30T21:49:07.998Z,419.98
2022-07-30T21:51:35.773Z,413.73
2022-07-30T21:54:07.168Z,402.17
2022-07-30T21:56:35.007Z,395.27
2022-07-30T21:59:09.565Z,439.77
2022-07-30T22:01:39.591Z,445.63
2022-07-30T22:04:16.548Z,413.87
2022-07-30T22:06:44.337Z,434.80
2022-07-30T22:09:19.565Z,440.10
2022-07-30T22:12:06.207Z,439.88
2022-07-30T22:14:37.098Z,417.27
2022-07-30T22:17:04.633Z,415.70
2022-07-30T22:19:32.980Z,427.02
2022-07-30T22:22:05.279Z,437.40
2022-07-30T22:24:48.221Z,457.60
2022-07-30T22:27:15.798Z,503.52
2022-07-30T22:29:44.297Z,441.95
2022-07-30T22:32:12.764Z,476.00
2022-07-30T22:34:40.809Z,455.83
2022-07-30T22:37:12.400Z,447.63
2022-07-30T22:39:50.831Z,452.38
2022-07-30T22:42:25.015Z,452.25
2022-07-30T22:44:55.452Z,433.75
2022-07-30T22:47:54.172Z,419.00
2022-07-30T22:53:09.820Z,439.38
2022-07-30T22:55:46.930Z,435.23
2022-07-30T22:58:14.512Z,421.35
2022-07-30T23:00:42.073Z,437.88
2022-07-30T23:03:12.461Z,428.95
2022-07-30T23:05:55.284Z,412.40
2022-07-30T23:08:29.499Z,403.35
2022-07-30T23:11:00.069Z,450.33
2022-07-30T23:12:27.316Z,414.08
2022-07-30T23:12:30.584Z,435.43
2022-07-30T23:13:28.866Z,467.97
2022-07-30T23:15:56.837Z,437.98
2022-07-30T23:18:25.073Z,428.03
2022-07-30T23:20:54.995Z,407.52
2022-07-30T23:23:24.772Z,419.50
2022-07-30T23:25:52.289Z,399.40
2022-07-30T23:28:20.075Z,396.02
2022-07-30T23:30:47.595Z,407.20
2022-07-30T23:33:18.237Z,438.20
2022-07-30T23:35:46.979Z,427.48
2022-07-30T23:38:14.530Z,415.35
2022-07-30T23:40:42.039Z,386.40
2022-07-30T23:43:09.571Z,392.35
2022-07-30T23:45:37.220Z,409.38
2022-07-30T23:48:04.977Z,433.83
2022-07-30T23:50:34.089Z,419.33
2022-07-30T23:53:02.481Z,466.90
2022-07-30T23:55:32.687Z,412.60
2022-07-30T23:58:00.504Z,474.37
